sensor_id;sensor_type;location;lat;lon;timestamp;temperature;humidity
54178;DHT22;40085;53.004;6.770;2023-06-22T00:40:49;17.90;99.90
54178;DHT22;40085;53.004;6.770;2023-06-22T00:43:15;18.50;89.70
54178;DHT22;40085;53.004;6.770;2023-06-22T00:45:40;17.90;81.90
54178;DHT22;40085;53.004;6.770;2023-06-22T00:48:07;18.20;87.10
54178;DHT22;40085;53.004;6.770;2023-06-22T00:50:33;17.60;94.70
54178;DHT22;40085;53.004;6.770;2023-06-22T00:53:06;17.70;94.30
54178;DHT22;40085;53.004;6.770;2023-06-22T00:55:38;18.00;97.30
54178;DHT22;40085;53.004;6.770;2023-06-22T00:58:05;18.00;97.90
54178;DHT22;40085;53.004;6.770;2023-06-22T01:00:33;17.80;96.80
54178;DHT22;40085;53.004;6.770;2023-06-22T01:02:59;17.80;99.90
54178;DHT22;40085;53.004;6.770;2023-06-22T01:05:25;17.80;99.90
54178;DHT22;40085;53.004;6.770;2023-06-22T01:08:21;18.00;99.90
54178;DHT22;40085;53.004;6.770;2023-06-22T01:10:53;17.70;98.40
54178;DHT22;40085;53.004;6.770;2023-06-22T01:16:40;17.30;99.90
54178;DHT22;40085;53.004;6.770;2023-06-22T01:19:20;17.70;99.90
54178;DHT22;40085;53.004;6.770;2023-06-22T01:21:51;17.60;95.80
54178;DHT22;40085;53.004;6.770;2023-06-22T01:24:38;17.50;93.90
54178;DHT22;40085;53.004;6.770;2023-06-22T01:30:06;17.20;94.80
54178;DHT22;40085;53.004;6.770;2023-06-22T01:32:38;17.20;99.90
54178;DHT22;40085;53.004;6.770;2023-06-22T01:35:06;17.40;99.90
54178;DHT22;40085;53.004;6.770;2023-06-22T01:37:34;17.20;95.10
54178;DHT22;40085;53.004;6.770;2023-06-22T01:40:01;17.40;97.10
54178;DHT22;40085;53.004;6.770;2023-06-22T01:42:28;18.00;99.90
54178;DHT22;40085;53.004;6.770;2023-06-22T01:44:54;17.50;99.90
54178;DHT22;40085;53.004;6.770;2023-06-22T01:47:22;17.40;99.90
54178;DHT22;40085;53.004;6.770;2023-06-22T01:52:17;17.00;99.90
54178;DHT22;40085;53.004;6.770;2023-06-22T01:54:43;17.80;99.90
54178;DHT22;40085;53.004;6.770;2023-06-22T01:57:08;17.60;99.90
54178;DHT22;40085;53.004;6.770;2023-06-22T01:59:46;17.20;99.90
54178;DHT22;40085;53.004;6.770;2023-06-22T02:04:51;16.80;99.90
54178;DHT22;40085;53.004;6.770;2023-06-22T02:07:18;16.90;99.90
54178;DHT22;40085;53.004;6.770;2023-06-22T02:09:47;17.10;99.90
54178;DHT22;40085;53.004;6.770;2023-06-22T04:53:57;16.70;99.90
54178;DHT22;40085;53.004;6.770;2023-06-22T04:56:26;16.60;99.90
54178;DHT22;40085;53.004;6.770;2023-06-22T04:58:53;16.80;99.90
54178;DHT22;40085;53.004;6.770;2023-06-22T05:01:23;16.80;99.90
54178;DHT22;40085;53.004;6.770;2023-06-22T05:03:49;17.00;99.90
54178;DHT22;40085;53.004;6.770;2023-06-22T05:06:15;16.90;99.90
54178;DHT22;40085;53.004;6.770;2023-06-22T05:08:40;17.30;99.90
54178;DHT22;40085;53.004;6.770;2023-06-22T05:11:06;17.20;99.90
54178;DHT22;40085;53.004;6.770;2023-06-22T05:25:50;17.80;99.90
54178;DHT22;40085;53.004;6.770;2023-06-22T05:40:26;17.90;99.90
54178;DHT22;40085;53.004;6.770;2023-06-22T05:42:52;18.40;99.90
54178;DHT22;40085;53.004;6.770;2023-06-22T05:45:18;18.00;99.90
54178;DHT22;40085;53.004;6.770;2023-06-22T05:47:43;18.10;99.90
54178;DHT22;40085;53.004;6.770;2023-06-22T05:50:09;18.10;99.90
54178;DHT22;40085;53.004;6.770;2023-06-22T05:52:35;18.30;99.90
54178;DHT22;40085;53.004;6.770;2023-06-22T05:55:02;18.20;99.90
54178;DHT22;40085;53.004;6.770;2023-06-22T05:57:27;18.80;99.90
54178;DHT22;40085;53.004;6.770;2023-06-22T05:59:53;18.70;99.90
54178;DHT22;40085;53.004;6.770;2023-06-22T06:02:19;19.30;99.90
54178;DHT22;40085;53.004;6.770;2023-06-22T06:04:45;19.00;99.90
54178;DHT22;40085;53.004;6.770;2023-06-22T06:07:10;19.20;99.90
54178;DHT22;40085;53.004;6.770;2023-06-22T06:09:36;19.50;99.90
54178;DHT22;40085;53.004;6.770;2023-06-22T06:12:02;19.40;92.10
54178;DHT22;40085;53.004;6.770;2023-06-22T06:14:28;19.40;55.90
54178;DHT22;40085;53.004;6.770;2023-06-22T06:16:54;19.10;51.30
54178;DHT22;40085;53.004;6.770;2023-06-22T06:19:19;19.50;37.10
54178;DHT22;40085;53.004;6.770;2023-06-22T06:21:45;19.80;20.90
54178;DHT22;40085;53.004;6.770;2023-06-22T06:24:11;19.60;13.30
54178;DHT22;40085;53.004;6.770;2023-06-22T06:26:37;20.00;1.00
54178;DHT22;40085;53.004;6.770;2023-06-22T06:29:03;20.00;1.00
54178;DHT22;40085;53.004;6.770;2023-06-22T06:31:28;20.70;1.00
54178;DHT22;40085;53.004;6.770;2023-06-22T06:33:54;20.50;99.90
54178;DHT22;40085;53.004;6.770;2023-06-22T06:36:20;20.30;72.90
54178;DHT22;40085;53.004;6.770;2023-06-22T06:38:46;20.30;99.90
54178;DHT22;40085;53.004;6.770;2023-06-22T06:41:16;20.60;61.70
54178;DHT22;40085;53.004;6.770;2023-06-22T06:43:42;20.10;99.90
54178;DHT22;40085;53.004;6.770;2023-06-22T06:46:11;21.20;49.50
54178;DHT22;40085;53.004;6.770;2023-06-22T06:48:36;20.90;99.90
54178;DHT22;40085;53.004;6.770;2023-06-22T06:51:02;20.70;46.20
54178;DHT22;40085;53.004;6.770;2023-06-22T06:53:28;20.70;99.90
54178;DHT22;40085;53.004;6.770;2023-06-22T06:55:54;20.90;99.90
54178;DHT22;40085;53.004;6.770;2023-06-22T06:58:19;20.90;1.00
54178;DHT22;40085;53.004;6.770;2023-06-22T07:00:45;21.40;47.00
54178;DHT22;40085;53.004;6.770;2023-06-22T07:03:11;21.30;16.30
54178;DHT22;40085;53.004;6.770;2023-06-22T07:05:36;21.40;99.90
54178;DHT22;40085;53.004;6.770;2023-06-22T07:08:02;21.40;99.90
54178;DHT22;40085;53.004;6.770;2023-06-22T07:10:29;21.10;99.90
54178;DHT22;40085;53.004;6.770;2023-06-22T07:12:54;21.40;99.90
54178;DHT22;40085;53.004;6.770;2023-06-22T07:15:20;21.00;99.90
54178;DHT22;40085;53.004;6.770;2023-06-22T07:17:46;21.20;99.90
54178;DHT22;40085;53.004;6.770;2023-06-22T07:20:12;21.40;97.90
54178;DHT22;40085;53.004;6.770;2023-06-22T07:22:42;21.50;99.90
54178;DHT22;40085;53.004;6.770;2023-06-22T07:25:08;21.80;95.60
54178;DHT22;40085;53.004;6.770;2023-06-22T07:28:01;21.70;85.20
54178;DHT22;40085;53.004;6.770;2023-06-22T07:30:28;21.60;1.00
54178;DHT22;40085;53.004;6.770;2023-06-22T07:32:54;21.60;93.40
54178;DHT22;40085;53.004;6.770;2023-06-22T07:35:19;22.30;74.50
54178;DHT22;40085;53.004;6.770;2023-06-22T07:37:45;22.00;25.80
54178;DHT22;40085;53.004;6.770;2023-06-22T07:40:12;22.10;1.00
54178;DHT22;40085;53.004;6.770;2023-06-22T07:42:37;22.10;99.90
54178;DHT22;40085;53.004;6.770;2023-06-22T07:45:04;22.40;99.90
54178;DHT22;40085;53.004;6.770;2023-06-22T07:47:31;22.50;99.90
54178;DHT22;40085;53.004;6.770;2023-06-22T07:50:00;23.30;99.90
54178;DHT22;40085;53.004;6.770;2023-06-22T07:52:27;22.80;99.90
54178;DHT22;40085;53.004;6.770;2023-06-22T07:54:53;23.00;99.90
54178;DHT22;40085;53.004;6.770;2023-06-22T07:57:19;22.90;99.90
54178;DHT22;40085;53.004;6.770;2023-06-22T07:59:45;22.90;99.90
54178;DHT22;40085;53.004;6.770;2023-06-22T08:02:11;22.80;99.90
54178;DHT22;40085;53.004;6.770;2023-06-22T08:04:37;23.00;99.90
54178;DHT22;40085;53.004;6.770;2023-06-22T08:07:03;23.60;99.90
54178;DHT22;40085;53.004;6.770;2023-06-22T08:09:30;23.10;99.80
54178;DHT22;40085;53.004;6.770;2023-06-22T08:11:57;23.20;95.00
54178;DHT22;40085;53.004;6.770;2023-06-22T08:14:24;23.40;96.70
54178;DHT22;40085;53.004;6.770;2023-06-22T08:16:50;22.90;92.60
54178;DHT22;40085;53.004;6.770;2023-06-22T08:19:16;23.40;89.50
54178;DHT22;40085;53.004;6.770;2023-06-22T08:21:42;23.50;91.70
54178;DHT22;40085;53.004;6.770;2023-06-22T08:24:08;23.60;90.50
54178;DHT22;40085;53.004;6.770;2023-06-22T08:26:34;23.60;88.70
54178;DHT22;40085;53.004;6.770;2023-06-22T08:29:03;23.60;84.40
54178;DHT22;40085;53.004;6.770;2023-06-22T08:31:30;23.60;83.70
54178;DHT22;40085;53.004;6.770;2023-06-22T08:33:56;23.70;85.80
54178;DHT22;40085;53.004;6.770;2023-06-22T08:36:21;23.80;82.00
54178;DHT22;40085;53.004;6.770;2023-06-22T08:38:47;24.00;99.90
54178;DHT22;40085;53.004;6.770;2023-06-22T09:42:11;24.90;44.10
54178;DHT22;40085;53.004;6.770;2023-06-22T09:44:36;24.90;58.20
54178;DHT22;40085;53.004;6.770;2023-06-22T09:47:02;25.00;56.20
54178;DHT22;40085;53.004;6.770;2023-06-22T09:49:28;24.90;54.70
54178;DHT22;40085;53.004;6.770;2023-06-22T09:51:54;24.90;51.30
54178;DHT22;40085;53.004;6.770;2023-06-22T09:54:19;24.80;51.00
54178;DHT22;40085;53.004;6.770;2023-06-22T09:56:45;25.00;57.20
54178;DHT22;40085;53.004;6.770;2023-06-22T09:59:10;25.10;55.10
54178;DHT22;40085;53.004;6.770;2023-06-22T10:30:54;26.10;99.90
54178;DHT22;40085;53.004;6.770;2023-06-22T10:33:20;25.80;99.90
54178;DHT22;40085;53.004;6.770;2023-06-22T10:35:45;25.50;99.90
54178;DHT22;40085;53.004;6.770;2023-06-22T10:38:11;25.50;99.90
54178;DHT22;40085;53.004;6.770;2023-06-22T10:40:37;25.50;90.50
54178;DHT22;40085;53.004;6.770;2023-06-22T10:43:04;25.50;79.60
54178;DHT22;40085;53.004;6.770;2023-06-22T10:45:30;25.50;79.50
54178;DHT22;40085;53.004;6.770;2023-06-22T10:47:56;25.70;54.30
54178;DHT22;40085;53.004;6.770;2023-06-22T10:50:21;25.60;48.00
54178;DHT22;40085;53.004;6.770;2023-06-22T10:52:49;25.40;45.60
54178;DHT22;40085;53.004;6.770;2023-06-22T10:55:14;25.30;42.20
54178;DHT22;40085;53.004;6.770;2023-06-22T10:57:40;25.40;43.00
54178;DHT22;40085;53.004;6.770;2023-06-22T11:00:08;25.30;43.30
54178;DHT22;40085;53.004;6.770;2023-06-22T11:02:34;25.40;44.50
54178;DHT22;40085;53.004;6.770;2023-06-22T11:05:00;25.40;42.80
54178;DHT22;40085;53.004;6.770;2023-06-22T11:07:26;25.30;42.30
54178;DHT22;40085;53.004;6.770;2023-06-22T11:09:54;25.70;39.90
54178;DHT22;40085;53.004;6.770;2023-06-22T11:12:19;25.50;41.20
54178;DHT22;40085;53.004;6.770;2023-06-22T11:14:45;25.50;39.70
54178;DHT22;40085;53.004;6.770;2023-06-22T11:17:11;25.60;41.80
54178;DHT22;40085;53.004;6.770;2023-06-22T11:19:36;25.50;40.30
54178;DHT22;40085;53.004;6.770;2023-06-22T11:22:02;25.60;41.40
54178;DHT22;40085;53.004;6.770;2023-06-22T11:24:28;25.80;40.80
54178;DHT22;40085;53.004;6.770;2023-06-22T11:26:53;25.70;36.00
54178;DHT22;40085;53.004;6.770;2023-06-22T11:29:19;24.50;31.80
54178;DHT22;40085;53.004;6.770;2023-06-22T11:31:44;25.70;37.50
54178;DHT22;40085;53.004;6.770;2023-06-22T11:34:10;25.80;36.90
54178;DHT22;40085;53.004;6.770;2023-06-22T11:36:36;25.90;32.90
54178;DHT22;40085;53.004;6.770;2023-06-22T11:39:02;25.90;39.80
54178;DHT22;40085;53.004;6.770;2023-06-22T11:41:28;26.00;36.80
54178;DHT22;40085;53.004;6.770;2023-06-22T11:43:53;26.50;36.10
54178;DHT22;40085;53.004;6.770;2023-06-22T11:46:19;26.20;35.40
54178;DHT22;40085;53.004;6.770;2023-06-22T11:48:45;26.50;36.10
54178;DHT22;40085;53.004;6.770;2023-06-22T11:51:11;26.10;32.70
54178;DHT22;40085;53.004;6.770;2023-06-22T11:53:36;26.10;32.40
54178;DHT22;40085;53.004;6.770;2023-06-22T11:56:02;26.20;31.50
54178;DHT22;40085;53.004;6.770;2023-06-22T11:58:27;26.20;33.10
54178;DHT22;40085;53.004;6.770;2023-06-22T12:00:53;26.20;34.10
54178;DHT22;40085;53.004;6.770;2023-06-22T12:03:19;26.10;31.80
54178;DHT22;40085;53.004;6.770;2023-06-22T12:05:47;26.20;32.90
54178;DHT22;40085;53.004;6.770;2023-06-22T12:08:13;26.40;31.80
54178;DHT22;40085;53.004;6.770;2023-06-22T12:10:39;26.10;30.30
54178;DHT22;40085;53.004;6.770;2023-06-22T12:13:05;26.20;31.70
54178;DHT22;40085;53.004;6.770;2023-06-22T12:15:30;26.00;29.30
54178;DHT22;40085;53.004;6.770;2023-06-22T12:17:56;26.20;31.50
54178;DHT22;40085;53.004;6.770;2023-06-22T12:20:22;26.20;31.30
54178;DHT22;40085;53.004;6.770;2023-06-22T12:22:48;26.20;31.80
54178;DHT22;40085;53.004;6.770;2023-06-22T12:25:16;26.20;31.30
54178;DHT22;40085;53.004;6.770;2023-06-22T12:27:42;26.20;30.90
54178;DHT22;40085;53.004;6.770;2023-06-22T12:30:08;26.10;29.50
54178;DHT22;40085;53.004;6.770;2023-06-22T12:32:34;26.10;30.30
54178;DHT22;40085;53.004;6.770;2023-06-22T12:35:00;26.20;32.80
54178;DHT22;40085;53.004;6.770;2023-06-22T12:37:25;26.10;30.60
54178;DHT22;40085;53.004;6.770;2023-06-22T12:39:51;26.10;30.60
54178;DHT22;40085;53.004;6.770;2023-06-22T12:42:17;26.00;30.50
54178;DHT22;40085;53.004;6.770;2023-06-22T12:44:42;26.10;30.10
54178;DHT22;40085;53.004;6.770;2023-06-22T12:47:08;26.00;29.30
54178;DHT22;40085;53.004;6.770;2023-06-22T12:49:35;25.90;26.50
54178;DHT22;40085;53.004;6.770;2023-06-22T12:52:01;25.80;27.10
54178;DHT22;40085;53.004;6.770;2023-06-22T12:54:27;25.90;28.80
54178;DHT22;40085;53.004;6.770;2023-06-22T12:56:54;25.90;28.50
54178;DHT22;40085;53.004;6.770;2023-06-22T12:59:20;25.90;29.40
54178;DHT22;40085;53.004;6.770;2023-06-22T13:01:46;26.00;30.00
54178;DHT22;40085;53.004;6.770;2023-06-22T13:04:12;25.80;29.30
54178;DHT22;40085;53.004;6.770;2023-06-22T13:06:43;26.00;29.90
54178;DHT22;40085;53.004;6.770;2023-06-22T13:09:13;26.00;29.60
54178;DHT22;40085;53.004;6.770;2023-06-22T13:11:38;25.90;28.90
54178;DHT22;40085;53.004;6.770;2023-06-22T13:14:04;25.70;27.90
54178;DHT22;40085;53.004;6.770;2023-06-22T13:16:30;25.70;26.70
54178;DHT22;40085;53.004;6.770;2023-06-22T13:18:55;25.70;27.70
54178;DHT22;40085;53.004;6.770;2023-06-22T13:21:21;25.90;27.40
54178;DHT22;40085;53.004;6.770;2023-06-22T13:23:46;25.80;27.80
54178;DHT22;40085;53.004;6.770;2023-06-22T13:26:12;25.60;27.00
54178;DHT22;40085;53.004;6.770;2023-06-22T13:28:38;25.60;27.20
54178;DHT22;40085;53.004;6.770;2023-06-22T13:31:03;25.50;26.50
54178;DHT22;40085;53.004;6.770;2023-06-22T13:33:29;25.60;27.40
54178;DHT22;40085;53.004;6.770;2023-06-22T13:35:55;25.50;24.70
54178;DHT22;40085;53.004;6.770;2023-06-22T13:38:20;25.50;25.10
54178;DHT22;40085;53.004;6.770;2023-06-22T13:40:46;25.40;25.00
54178;DHT22;40085;53.004;6.770;2023-06-22T13:43:13;25.40;25.50
54178;DHT22;40085;53.004;6.770;2023-06-22T13:45:38;25.30;24.20
54178;DHT22;40085;53.004;6.770;2023-06-22T13:48:04;25.30;23.50
54178;DHT22;40085;53.004;6.770;2023-06-22T13:50:30;25.10;21.70
54178;DHT22;40085;53.004;6.770;2023-06-22T13:52:55;25.00;22.40
54178;DHT22;40085;53.004;6.770;2023-06-22T13:55:22;25.00;22.30
54178;DHT22;40085;53.004;6.770;2023-06-22T13:57:49;24.90;22.50
54178;DHT22;40085;53.004;6.770;2023-06-22T14:00:15;24.80;21.00
54178;DHT22;40085;53.004;6.770;2023-06-22T14:02:40;24.80;21.20
54178;DHT22;40085;53.004;6.770;2023-06-22T14:05:07;24.80;20.60
54178;DHT22;40085;53.004;6.770;2023-06-22T14:07:33;24.70;19.60
54178;DHT22;40085;53.004;6.770;2023-06-22T14:09:59;24.70;19.70
54178;DHT22;40085;53.004;6.770;2023-06-22T14:12:25;24.60;19.60
54178;DHT22;40085;53.004;6.770;2023-06-22T14:14:51;24.80;20.70
54178;DHT22;40085;53.004;6.770;2023-06-22T14:17:17;24.40;20.00
54178;DHT22;40085;53.004;6.770;2023-06-22T14:19:43;24.80;20.40
54178;DHT22;40085;53.004;6.770;2023-06-22T14:22:08;24.30;21.50
54178;DHT22;40085;53.004;6.770;2023-06-22T14:24:34;24.50;34.70
54178;DHT22;40085;53.004;6.770;2023-06-22T14:27:00;24.10;27.40
54178;DHT22;40085;53.004;6.770;2023-06-22T14:29:28;24.00;22.40
54178;DHT22;40085;53.004;6.770;2023-06-22T14:31:53;24.00;24.60
54178;DHT22;40085;53.004;6.770;2023-06-22T14:34:19;24.40;27.20
54178;DHT22;40085;53.004;6.770;2023-06-22T14:36:44;24.20;28.10
54178;DHT22;40085;53.004;6.770;2023-06-22T14:39:10;23.80;29.80
54178;DHT22;40085;53.004;6.770;2023-06-22T14:41:35;24.10;29.90
54178;DHT22;40085;53.004;6.770;2023-06-22T14:44:01;23.60;99.90
54178;DHT22;40085;53.004;6.770;2023-06-22T14:46:27;23.50;99.90
54178;DHT22;40085;53.004;6.770;2023-06-22T14:53:45;23.30;99.90
54178;DHT22;40085;53.004;6.770;2023-06-22T15:28:00;22.90;8.60
54178;DHT22;40085;53.004;6.770;2023-06-22T15:30:25;22.30;45.80
54178;DHT22;40085;53.004;6.770;2023-06-22T15:32:51;22.10;47.30
54178;DHT22;40085;53.004;6.770;2023-06-22T15:35:17;22.00;47.10
54178;DHT22;40085;53.004;6.770;2023-06-22T15:37:44;21.90;50.90
54178;DHT22;40085;53.004;6.770;2023-06-22T15:40:11;21.80;57.60
54178;DHT22;40085;53.004;6.770;2023-06-22T15:42:36;22.60;61.00
54178;DHT22;40085;53.004;6.770;2023-06-22T15:45:03;21.70;60.30
54178;DHT22;40085;53.004;6.770;2023-06-22T15:47:29;21.60;64.30
54178;DHT22;40085;53.004;6.770;2023-06-22T15:49:55;21.60;99.90
54178;DHT22;40085;53.004;6.770;2023-06-22T15:52:20;21.50;99.90
54178;DHT22;40085;53.004;6.770;2023-06-22T15:57:12;21.20;99.90
54178;DHT22;40085;53.004;6.770;2023-06-22T15:59:42;21.80;1.00
54178;DHT22;40085;53.004;6.770;2023-06-22T16:02:08;21.80;24.20
54178;DHT22;40085;53.004;6.770;2023-06-22T16:04:35;21.50;99.90
54178;DHT22;40085;53.004;6.770;2023-06-22T16:07:01;21.50;99.90
54178;DHT22;40085;53.004;6.770;2023-06-22T16:09:27;21.50;1.00
54178;DHT22;40085;53.004;6.770;2023-06-22T16:11:54;21.20;1.00
54178;DHT22;40085;53.004;6.770;2023-06-22T16:14:19;21.30;1.00
54178;DHT22;40085;53.004;6.770;2023-06-22T16:16:45;21.80;99.90
54178;DHT22;40085;53.004;6.770;2023-06-22T16:19:11;21.10;99.90
54178;DHT22;40085;53.004;6.770;2023-06-22T16:21:37;21.30;99.90
54178;DHT22;40085;53.004;6.770;2023-06-22T16:24:02;21.00;99.90
54178;DHT22;40085;53.004;6.770;2023-06-22T16:26:30;21.00;99.90
54178;DHT22;40085;53.004;6.770;2023-06-22T16:28:55;21.20;99.90
54178;DHT22;40085;53.004;6.770;2023-06-22T16:36:15;20.50;99.90
54178;DHT22;40085;53.004;6.770;2023-06-22T16:38:41;20.40;99.90
54178;DHT22;40085;53.004;6.770;2023-06-22T16:41:07;20.30;99.90
54178;DHT22;40085;53.004;6.770;2023-06-22T16:43:37;20.20;99.90
54178;DHT22;40085;53.004;6.770;2023-06-22T16:46:06;20.10;99.90
54178;DHT22;40085;53.004;6.770;2023-06-22T16:48:32;20.10;99.90
54178;DHT22;40085;53.004;6.770;2023-06-22T16:50:57;20.00;99.90
54178;DHT22;40085;53.004;6.770;2023-06-22T16:53:23;20.10;99.90
54178;DHT22;40085;53.004;6.770;2023-06-22T16:55:49;19.90;99.90
54178;DHT22;40085;53.004;6.770;2023-06-22T16:58:17;19.90;99.90
54178;DHT22;40085;53.004;6.770;2023-06-22T17:00:47;19.90;99.90
54178;DHT22;40085;53.004;6.770;2023-06-22T17:03:39;19.80;99.90
54178;DHT22;40085;53.004;6.770;2023-06-22T17:06:04;19.80;99.90
54178;DHT22;40085;53.004;6.770;2023-06-22T17:08:31;19.80;99.90
54178;DHT22;40085;53.004;6.770;2023-06-22T17:11:00;19.60;99.90
54178;DHT22;40085;53.004;6.770;2023-06-22T17:13:26;19.50;1.00
54178;DHT22;40085;53.004;6.770;2023-06-22T17:15:56;19.70;1.00
54178;DHT22;40085;53.004;6.770;2023-06-22T17:18:26;19.70;99.90
54178;DHT22;40085;53.004;6.770;2023-06-22T17:20:52;19.60;99.90
54178;DHT22;40085;53.004;6.770;2023-06-22T17:23:17;19.60;99.90
54178;DHT22;40085;53.004;6.770;2023-06-22T17:25:46;20.10;99.90
54178;DHT22;40085;53.004;6.770;2023-06-22T17:28:11;19.60;99.90
54178;DHT22;40085;53.004;6.770;2023-06-22T17:30:37;19.50;99.90
54178;DHT22;40085;53.004;6.770;2023-06-22T17:33:03;19.50;1.00
54178;DHT22;40085;53.004;6.770;2023-06-22T17:35:31;19.40;99.90
54178;DHT22;40085;53.004;6.770;2023-06-22T17:37:58;19.30;1.00
54178;DHT22;40085;53.004;6.770;2023-06-22T17:40:26;19.80;99.90
54178;DHT22;40085;53.004;6.770;2023-06-22T17:43:05;19.30;46.00
54178;DHT22;40085;53.004;6.770;2023-06-22T18:05:09;19.10;99.90
54178;DHT22;40085;53.004;6.770;2023-06-22T18:07:36;19.40;1.00
54178;DHT22;40085;53.004;6.770;2023-06-22T18:10:03;19.10;1.00
54178;DHT22;40085;53.004;6.770;2023-06-22T18:12:29;18.90;1.00
54178;DHT22;40085;53.004;6.770;2023-06-22T18:14:55;19.80;1.00
54178;DHT22;40085;53.004;6.770;2023-06-22T18:17:21;18.60;1.00
54178;DHT22;40085;53.004;6.770;2023-06-22T18:19:48;19.10;1.00
54178;DHT22;40085;53.004;6.770;2023-06-22T18:22:14;18.70;99.90
54178;DHT22;40085;53.004;6.770;2023-06-22T18:24:40;19.30;99.90
54178;DHT22;40085;53.004;6.770;2023-06-22T18:27:06;19.10;99.90
54178;DHT22;40085;53.004;6.770;2023-06-22T18:29:32;18.60;1.00
54178;DHT22;40085;53.004;6.770;2023-06-22T18:31:58;19.30;99.90
54178;DHT22;40085;53.004;6.770;2023-06-22T18:34:24;19.60;16.10
54178;DHT22;40085;53.004;6.770;2023-06-22T18:36:54;18.80;99.90
54178;DHT22;40085;53.004;6.770;2023-06-22T18:39:20;19.50;99.90
54178;DHT22;40085;53.004;6.770;2023-06-22T18:41:54;19.00;1.00
54178;DHT22;40085;53.004;6.770;2023-06-22T18:44:28;18.70;1.00
54178;DHT22;40085;53.004;6.770;2023-06-22T18:46:58;18.70;95.20
54178;DHT22;40085;53.004;6.770;2023-06-22T18:49:25;19.10;99.90
54178;DHT22;40085;53.004;6.770;2023-06-22T18:54:38;18.50;99.90
54178;DHT22;40085;53.004;6.770;2023-06-22T18:57:28;18.50;1.00
54178;DHT22;40085;53.004;6.770;2023-06-22T19:05:14;18.40;99.90
54178;DHT22;40085;53.004;6.770;2023-06-22T19:10:55;18.80;99.90
